Time;durP1;ratioP1;P1;durP2;ratioP2;P2;SDS_P1;SDS_P2;PMS_P1;PMS_P2;Temp;Humidity;BMP_temperature;BMP_pressure;BME280_temperature;BME280_humidity;BME280_pressure;Samples;Min_cycle;Max_cycle;Signal;HPM_P1;HPM_P2
2024/01/08 00:02:29;;;;;;;0.10;0.10;;;;;;;0.46;100.00;99842.81;5032434;28;20225;-52
2024/01/08 00:05:16;;;;;;;0.00;0.00;;;;;;;0.67;100.00;99839.09;5032477;28;20252;-52
2024/01/08 00:08:04;;;;;;;0.10;0.10;;;;;;;0.76;100.00;99838.97;5032363;28;20263;-53
2024/01/08 00:10:51;;;;;;;0.00;0.00;;;;;;;0.61;100.00;99843.53;5016050;28;20312;-53
2024/01/08 00:13:39;;;;;;;0.10;0.10;;;;;;;0.56;100.00;99847.03;5032441;28;20205;-52
2024/01/08 00:16:25;;;;;;;0.10;0.10;;;;;;;0.41;100.00;99852.47;5032353;28;20204;-52
2024/01/08 00:19:12;;;;;;;0.10;0.10;;;;;;;0.53;100.00;99852.31;5032390;28;20236;-53
2024/01/08 00:21:59;;;;;;;0.10;0.10;;;;;;;0.48;100.00;99851.50;5032253;28;20235;-52
2024/01/08 00:24:46;;;;;;;0.00;0.00;;;;;;;0.71;100.00;99853.81;5030937;28;20197;-52
2024/01/08 00:27:33;;;;;;;0.10;0.10;;;;;;;0.61;100.00;99848.75;5034258;28;20220;-52
2024/01/08 00:30:21;;;;;;;0.10;0.10;;;;;;;0.60;100.00;99847.88;5035791;28;20213;-53
2024/01/08 00:33:09;;;;;;;0.10;0.10;;;;;;;0.61;100.00;99853.97;5035688;28;20189;-51
2024/01/08 00:35:56;;;;;;;0.10;0.10;;;;;;;0.71;100.00;99851.22;5035613;28;20197;-52
2024/01/08 00:38:42;;;;;;;0.10;0.10;;;;;;;0.62;100.00;99855.69;5035637;28;20204;-52
2024/01/08 00:41:29;;;;;;;0.10;0.10;;;;;;;0.77;100.00;99850.25;5035311;28;20727;-52
2024/01/08 00:44:16;;;;;;;0.10;0.10;;;;;;;0.56;100.00;99852.25;5035173;28;20220;-52
2024/01/08 00:47:05;;;;;;;0.10;0.10;;;;;;;0.73;100.00;99857.25;5035387;28;20220;-52
2024/01/08 00:49:52;;;;;;;0.10;0.10;;;;;;;0.41;100.00;99854.19;5035418;28;20192;-52
2024/01/08 00:52:39;;;;;;;0.10;0.10;;;;;;;0.57;100.00;99846.16;5035340;28;20193;-52
2024/01/08 00:55:25;;;;;;;0.10;0.10;;;;;;;0.44;100.00;99847.19;5014146;28;20197;-52
2024/01/08 00:58:12;;;;;;;0.10;0.10;;;;;;;0.42;100.00;99854.19;5015190;28;20229;-51
2024/01/08 01:00:59;;;;;;;0.10;0.10;;;;;;;0.47;100.00;99854.09;5015507;28;20300;-52
2024/01/08 01:03:48;;;;;;;0.10;0.10;;;;;;;0.46;100.00;99845.44;5023135;28;20225;-51
2024/01/08 01:06:35;;;;;;;0.10;0.10;;;;;;;0.51;100.00;99853.22;5035099;28;20201;-52
2024/01/08 01:09:22;;;;;;;0.10;0.10;;;;;;;0.47;100.00;99848.91;5033820;28;20197;-52
2024/01/08 01:12:10;;;;;;;0.10;0.10;;;;;;;0.26;100.00;99856.09;5034869;28;20204;-52
2024/01/08 01:14:56;;;;;;;0.10;0.10;;;;;;;0.37;100.00;99855.09;5033668;28;20193;-53
2024/01/08 01:17:43;;;;;;;0.00;0.00;;;;;;;0.22;100.00;99866.56;5034119;28;20225;-52
2024/01/08 01:20:32;;;;;;;0.10;0.10;;;;;;;0.35;100.00;99854.25;5034820;28;20184;-52
2024/01/08 01:23:19;;;;;;;0.10;0.10;;;;;;;0.37;100.00;99863.78;5034584;28;20209;-52
2024/01/08 01:26:06;;;;;;;0.00;0.00;;;;;;;0.22;100.00;99858.75;5033475;28;20200;-52
2024/01/08 01:28:54;;;;;;;0.00;0.00;;;;;;;0.42;100.00;99862.00;5034762;28;20244;-52
2024/01/08 01:31:41;;;;;;;0.10;0.10;;;;;;;0.42;100.00;99850.72;5034649;28;20250;-53
2024/01/08 01:34:28;;;;;;;0.10;0.10;;;;;;;0.51;100.00;99853.22;5034610;28;20293;-52
2024/01/08 01:37:16;;;;;;;0.00;0.00;;;;;;;0.36;100.00;99849.03;5034693;28;20197;-52
2024/01/08 01:40:03;;;;;;;0.10;0.10;;;;;;;0.40;100.00;99848.13;5032411;28;20221;-52
2024/01/08 01:42:54;;;;;;;0.10;0.10;;;;;;;0.64;100.00;99854.78;5034421;28;20273;-52
2024/01/08 01:45:41;;;;;;;0.03;0.03;;;;;;;0.52;100.00;99849.72;5014627;28;20644;-53
2024/01/08 01:48:29;;;;;;;0.10;0.10;;;;;;;0.46;100.00;99849.78;5014453;28;20202;-52
2024/01/08 01:51:16;;;;;;;0.10;0.10;;;;;;;0.66;100.00;99850.41;5014470;28;20206;-53
2024/01/08 01:54:04;;;;;;;0.10;0.10;;;;;;;0.49;100.00;99860.19;5022619;28;20239;-52
2024/01/08 01:56:57;;;;;;;0.10;0.10;;;;;;;0.30;100.00;99862.13;5033927;28;20197;-52
2024/01/08 01:59:44;;;;;;;0.10;0.10;;;;;;;0.18;100.00;99857.91;5034087;28;20304;-52
2024/01/08 02:02:32;;;;;;;0.10;0.10;;;;;;;0.28;100.00;99862.13;5034042;28;20243;-52
2024/01/08 02:05:19;;;;;;;0.10;0.10;;;;;;;0.40;100.00;99855.09;5033735;28;20201;-52
2024/01/08 02:08:07;;;;;;;0.10;0.10;;;;;;;0.49;100.00;99861.06;5033920;28;20683;-52
2024/01/08 02:10:56;;;;;;;0.10;0.10;;;;;;;0.44;100.00;99861.97;5032651;28;20208;-51
2024/01/08 02:13:42;;;;;;;0.10;0.10;;;;;;;0.36;100.00;99856.84;5033655;28;20193;-52
2024/01/08 02:16:30;;;;;;;0.10;0.10;;;;;;;0.51;100.00;99853.22;5033825;28;20263;-53
2024/01/08 02:19:17;;;;;;;0.10;0.10;;;;;;;0.39;100.00;99849.00;5033585;28;20259;-52
2024/01/08 02:22:04;;;;;;;0.10;0.10;;;;;;;0.27;100.00;99859.56;5033468;28;20308;-52
2024/01/08 02:24:52;;;;;;;0.00;0.00;;;;;;;0.23;100.00;99850.06;5032075;28;20232;-52
2024/01/08 02:27:38;;;;;;;0.10;0.10;;;;;;;0.13;100.00;99851.03;5033573;28;20691;-52
2024/01/08 02:30:25;;;;;;;0.10;0.10;;;;;;;0.28;100.00;99848.25;5033322;28;20319;-52
2024/01/08 02:33:12;;;;;;;0.10;0.10;;;;;;;0.64;100.00;99851.31;5033335;28;20271;-53
2024/01/08 02:35:59;;;;;;;0.03;0.03;;;;;;;0.52;100.00;99858.41;5033633;28;20200;-52
2024/01/08 02:38:47;;;;;;;0.10;0.10;;;;;;;0.40;100.00;99850.72;5017845;28;20208;-51
2024/01/08 02:41:35;;;;;;;0.10;0.10;;;;;;;0.22;100.00;99850.94;5033233;28;20196;-53
2024/01/08 02:44:22;;;;;;;0.10;0.10;;;;;;;0.34;100.00;99855.16;5033092;28;20336;-52
2024/01/08 02:47:09;;;;;;;0.10;0.10;;;;;;;0.15;100.00;99851.88;5032677;28;20201;-52
2024/01/08 02:49:55;;;;;;;0.10;0.10;;;;;;;0.06;100.00;99855.44;5032896;28;20209;-52
2024/01/08 02:52:44;;;;;;;0.10;0.10;;;;;;;0.27;100.00;99854.34;5033215;28;20263;-52
2024/01/08 02:55:31;;;;;;;0.10;0.10;;;;;;;0.42;100.00;99858.53;5031856;28;20240;-52
2024/01/08 02:58:19;;;;;;;0.10;0.10;;;;;;;0.37;100.00;99860.31;5032798;28;20232;-52
2024/01/08 03:01:06;;;;;;;0.10;0.10;;;;;;;0.28;100.00;99856.91;5033088;28;20263;-53
2024/01/08 03:03:53;;;;;;;0.10;0.10;;;;;;;0.40;100.00;99860.28;5032905;28;20336;-52
2024/01/08 03:06:40;;;;;;;0.10;0.10;;;;;;;0.28;100.00;99854.31;5033082;28;20204;-53
2024/01/08 03:09:27;;;;;;;0.10;0.10;;;;;;;0.31;100.00;99858.66;5031692;28;20205;-52
2024/01/08 03:12:14;;;;;;;0.10;0.10;;;;;;;0.20;100.00;99857.91;5032781;28;20222;-52
2024/01/08 03:15:02;;;;;;;0.10;0.10;;;;;;;0.30;100.00;99866.50;5032797;28;20189;-52
2024/01/08 03:17:49;;;;;;;0.00;0.00;;;;;;;0.28;100.00;99861.28;5032419;28;20201;-52
2024/01/08 03:20:36;;;;;;;0.10;0.10;;;;;;;0.23;100.00;99861.34;5032868;28;20196;-52
2024/01/08 03:23:23;;;;;;;0.10;0.10;;;;;;;0.12;100.00;99863.19;5032705;28;20268;-51
2024/01/08 03:26:10;;;;;;;0.10;0.10;;;;;;;0.43;100.00;99860.25;5032044;28;20299;-52
2024/01/08 03:28:57;;;;;;;0.10;0.10;;;;;;;0.22;100.00;99859.63;5032838;28;20420;-52
2024/01/08 03:31:46;;;;;;;0.10;0.10;;;;;;;0.14;100.00;99869.25;5032753;28;20184;-52
2024/01/08 03:34:33;;;;;;;0.00;0.00;;;;;;;0.26;100.00;99870.84;5032676;28;20216;-52
2024/01/08 03:37:20;;;;;;;0.10;0.10;;;;;;;0.26;100.00;99868.25;5032780;28;20197;-52
2024/01/08 03:40:08;;;;;;;0.10;0.10;;;;;;;0.25;100.00;99875.19;5031429;28;20189;-52
2024/01/08 03:42:55;;;;;;;0.10;0.10;;;;;;;0.28;100.00;99875.16;5032705;28;20691;-52
2024/01/08 03:45:42;;;;;;;0.10;0.10;;;;;;;0.17;100.00;99871.81;5012588;28;20287;-52
2024/01/08 03:48:30;;;;;;;0.10;0.10;;;;;;;0.19;100.00;99872.69;5012856;28;20201;-51
2024/01/08 03:51:17;;;;;;;0.10;0.10;;;;;;;-0.05;100.00;99876.38;5012828;28;20193;-52
2024/01/08 03:54:04;;;;;;;0.10;0.10;;;;;;;0.34;100.00;99865.56;5019355;28;20208;-52
2024/01/08 03:56:51;;;;;;;0.10;0.10;;;;;;;0.12;100.00;99878.81;5032400;28;20188;-53
2024/01/08 03:59:38;;;;;;;0.10;0.10;;;;;;;0.22;100.00;99877.00;5032448;28;20201;-52
2024/01/08 04:02:25;;;;;;;0.10;0.10;;;;;;;0.47;100.00;99870.59;5034352;28;20239;-52
2024/01/08 04:05:13;;;;;;;0.10;0.10;;;;;;;0.21;100.00;99878.72;5035984;28;20264;-52
2024/01/08 04:08:00;;;;;;;0.00;0.00;;;;;;;0.13;100.00;99879.69;5036272;28;20424;-52
2024/01/08 04:10:47;;;;;;;0.10;0.10;;;;;;;-0.03;100.00;99882.44;5034851;28;20259;-52
2024/01/08 04:13:34;;;;;;;0.00;0.00;;;;;;;0.02;100.00;99889.34;5036244;28;20219;-52
2024/01/08 04:16:20;;;;;;;0.10;0.10;;;;;;;0.05;100.00;99879.75;5035870;28;20193;-52
2024/01/08 04:19:08;;;;;;;0.03;0.03;;;;;;;0.26;100.00;99882.13;5036089;28;20270;-52
2024/01/08 04:21:56;;;;;;;0.00;0.00;;;;;;;0.24;100.00;99877.81;5035911;28;20193;-52
2024/01/08 04:24:43;;;;;;;0.07;0.07;;;;;;;0.29;100.00;99883.88;5034451;28;20217;-52
2024/01/08 04:27:30;;;;;;;0.10;0.10;;;;;;;0.32;100.00;99877.75;5035927;28;20201;-52
2024/01/08 04:30:18;;;;;;;0.10;0.10;;;;;;;0.22;100.00;99883.06;5035903;28;20316;-52
2024/01/08 04:33:05;;;;;;;0.10;0.10;;;;;;;0.24;100.00;99870.88;5035892;28;20205;-52
2024/01/08 04:35:52;;;;;;;0.10;0.10;;;;;;;0.10;100.00;99880.59;5015912;28;20225;-52
2024/01/08 04:38:40;;;;;;;0.10;0.10;;;;;;;0.05;100.00;99874.53;5015815;28;20193;-53
2024/01/08 04:41:27;;;;;;;0.10;0.10;;;;;;;0.08;100.00;99879.72;5015978;28;20194;-52
2024/01/08 04:44:14;;;;;;;0.10;0.10;;;;;;;-0.05;100.00;99888.53;5024202;28;20200;-51
2024/01/08 04:47:01;;;;;;;0.10;0.10;;;;;;;-0.04;100.00;99882.44;5035624;28;20192;-52
2024/01/08 04:49:48;;;;;;;0.10;0.10;;;;;;;0.07;100.00;99887.53;5020391;28;20587;-52
2024/01/08 04:52:35;;;;;;;0.00;0.00;;;;;;;0.17;100.00;99897.00;5035523;28;20271;-52
2024/01/08 04:55:23;;;;;;;0.00;0.00;;;;;;;0.34;100.00;99889.00;5033952;28;20232;-53
2024/01/08 04:58:10;;;;;;;0.10;0.10;;;;;;;0.27;100.00;99888.22;5035144;28;20225;-52
2024/01/08 05:00:56;;;;;;;0.10;0.10;;;;;;;0.30;100.00;99898.63;5035366;28;20726;-52
2024/01/08 05:03:43;;;;;;;0.10;0.10;;;;;;;0.38;100.00;99895.91;5034678;28;20227;-52
2024/01/08 05:06:30;;;;;;;0.10;0.10;;;;;;;0.31;100.00;99904.69;5034832;28;20224;-52
2024/01/08 05:09:17;;;;;;;0.10;0.10;;;;;;;0.08;100.00;99902.28;5033816;28;20273;-53
2024/01/08 05:12:06;;;;;;;0.10;0.10;;;;;;;0.11;100.00;99895.34;5034505;28;20200;-52
2024/01/08 05:14:53;;;;;;;0.10;0.10;;;;;;;0.13;100.00;99906.59;5034899;28;20190;-52
2024/01/08 05:17:40;;;;;;;0.10;0.10;;;;;;;0.15;100.00;99894.41;5034990;28;20185;-52
2024/01/08 05:20:27;;;;;;;0.10;0.10;;;;;;;0.17;100.00;99900.47;5034874;28;20438;-53
2024/01/08 05:23:14;;;;;;;0.10;0.10;;;;;;;0.11;100.00;99894.47;5034835;28;20196;-52
2024/01/08 05:26:02;;;;;;;0.10;0.10;;;;;;;0.03;100.00;99898.88;5013602;28;20695;-52
2024/01/08 05:28:50;;;;;;;0.00;0.00;;;;;;;0.23;100.00;99896.94;5014935;28;20343;-52
2024/01/08 05:31:37;;;;;;;0.10;0.10;;;;;;;-0.04;100.00;99898.06;5014962;28;20209;-52
2024/01/08 05:34:24;;;;;;;0.10;0.10;;;;;;;0.03;100.00;99910.16;5023868;28;20556;-52
2024/01/08 05:37:11;;;;;;;0.10;0.10;;;;;;;-0.02;100.00;99910.19;5034566;28;20205;-52
2024/01/08 05:39:57;;;;;;;0.10;0.10;;;;;;;0.05;100.00;99903.19;5033143;28;20271;-52
2024/01/08 05:42:45;;;;;;;0.10;0.10;;;;;;;0.02;100.00;99911.03;5034551;28;20252;-53
2024/01/08 05:45:33;;;;;;;0.10;0.10;;;;;;;-0.01;100.00;99903.25;5034420;28;20299;-52
2024/01/08 05:48:19;;;;;;;0.10;0.10;;;;;;;0.08;100.00;99904.91;5034382;28;20201;-52
2024/01/08 05:51:07;;;;;;;0.10;0.10;;;;;;;0.18;100.00;99907.38;5034231;28;20268;-52
2024/01/08 05:53:54;;;;;;;0.10;0.10;;;;;;;0.02;100.00;99898.03;5032931;28;20188;-52
2024/01/08 05:56:42;;;;;;;0.10;0.10;;;;;;;0.07;100.00;99908.38;5034126;28;20189;-52
2024/01/08 05:59:29;;;;;;;0.10;0.10;;;;;;;0.23;100.00;99907.38;5034073;28;20204;-52
2024/01/08 06:02:17;;;;;;;0.10;0.10;;;;;;;0.18;100.00;99909.13;5034079;28;20320;-52
2024/01/08 06:05:06;;;;;;;0.10;0.10;;;;;;;0.15;100.00;99911.78;5033714;28;20196;-52
2024/01/08 06:07:52;;;;;;;0.07;0.07;;;;;;;0.51;100.00;99921.81;5034019;28;20213;-51
2024/01/08 06:10:40;;;;;;;0.10;0.10;;;;;;;0.21;100.00;99922.16;5032816;28;20209;-52
2024/01/08 06:13:27;;;;;;;0.10;0.10;;;;;;;0.20;100.00;99913.47;5032687;28;20197;-52
2024/01/08 06:16:17;;;;;;;0.10;0.10;;;;;;;0.18;100.00;99925.63;5033810;28;20259;-53
2024/01/08 06:19:05;;;;;;;0.10;0.10;;;;;;;0.15;100.00;99911.78;5033854;28;20189;-52
2024/01/08 06:21:52;;;;;;;0.10;0.10;;;;;;;0.26;100.00;99915.13;5033591;28;20324;-53
2024/01/08 06:24:39;;;;;;;0.10;0.10;;;;;;;0.04;100.00;99918.84;5031720;28;20196;-52
2024/01/08 06:27:26;;;;;;;0.10;0.10;;;;;;;-0.09;100.00;99915.50;5033555;28;20197;-52
2024/01/08 06:30:14;;;;;;;0.10;0.10;;;;;;;-0.10;100.00;99905.91;5033365;28;20205;-52
2024/01/08 06:33:01;;;;;;;0.10;0.10;;;;;;;0.41;100.00;99924.56;5033505;28;20216;-52
2024/01/08 06:35:50;;;;;;;0.10;0.10;;;;;;;0.34;100.00;99925.50;5013731;28;20202;-52
2024/01/08 06:38:37;;;;;;;0.10;0.10;;;;;;;0.45;100.00;99924.50;5013604;28;20213;-52
2024/01/08 06:41:24;;;;;;;0.10;0.10;;;;;;;0.08;100.00;99929.19;5013657;28;20727;-52
2024/01/08 06:44:11;;;;;;;0.10;0.10;;;;;;;0.21;100.00;99930.81;5019821;28;20200;-52
2024/01/08 06:46:58;;;;;;;0.10;0.10;;;;;;;0.36;100.00;99935.00;5032904;28;20221;-52
2024/01/08 06:49:45;;;;;;;0.10;0.10;;;;;;;0.15;100.00;99936.09;5033240;28;20508;-53
2024/01/08 06:52:33;;;;;;;0.10;0.10;;;;;;;0.12;100.00;99933.53;5032920;28;20226;-52
2024/01/08 06:55:20;;;;;;;0.10;0.10;;;;;;;0.32;100.00;99940.28;5031432;28;20312;-52
2024/01/08 06:58:07;;;;;;;0.10;0.10;;;;;;;0.35;100.00;99951.53;5032218;28;20256;-52
2024/01/08 07:00:53;;;;;;;0.03;0.03;;;;;;;0.01;100.00;99953.59;5033065;28;20193;-52
2024/01/08 07:03:41;;;;;;;0.10;0.10;;;;;;;-0.02;100.00;99959.66;5032625;28;20189;-54
2024/01/08 07:06:28;;;;;;;0.10;0.10;;;;;;;0.10;100.00;99963.06;5032721;28;20295;-52
2024/01/08 07:09:15;;;;;;;0.10;0.10;;;;;;;0.21;99.03;99969.03;5031846;28;20197;-53
2024/01/08 07:12:03;;;;;;;0.10;0.10;;;;;;;-0.07;99.19;99968.41;5032880;28;20220;-52
2024/01/08 07:14:52;;;;;;;0.10;0.10;;;;;;;-0.18;97.67;99965.03;5033275;28;20217;-53
2024/01/08 07:17:39;;;;;;;0.00;0.00;;;;;;;-0.16;96.28;99965.88;5032929;28;20240;-53
2024/01/08 07:20:26;;;;;;;0.10;0.10;;;;;;;-0.12;96.06;99968.41;5017820;28;20759;-53
2024/01/08 07:23:14;;;;;;;0.10;0.10;;;;;;;0.00;91.55;99970.09;5032912;28;20209;-52
2024/01/08 07:26:02;;;;;;;0.10;0.10;;;;;;;-0.27;91.35;99984.19;5011783;28;20201;-52
2024/01/08 07:28:49;;;;;;;0.10;0.10;;;;;;;-0.26;90.99;99974.63;5013067;28;20197;-53
2024/01/08 07:31:36;;;;;;;0.00;0.00;;;;;;;-0.36;88.29;99979.03;5013072;28;20189;-52
2024/01/08 07:34:23;;;;;;;0.10;0.10;;;;;;;-0.43;87.62;99987.75;5020195;28;20196;-53
2024/01/08 07:37:10;;;;;;;0.00;0.00;;;;;;;-0.44;86.41;99991.22;5036059;28;20189;-53
2024/01/08 07:39:57;;;;;;;0.10;0.10;;;;;;;-0.42;84.56;99984.25;5035497;28;20320;-52
2024/01/08 07:42:45;;;;;;;0.10;0.10;;;;;;;-0.54;83.78;99993.00;5036810;28;20760;-52
2024/01/08 07:45:32;;;;;;;0.10;0.10;;;;;;;-0.72;82.95;99980.97;5036398;28;20241;-53
2024/01/08 07:48:18;;;;;;;0.10;0.10;;;;;;;-0.60;83.55;99988.69;5036659;28;20231;-53
2024/01/08 07:51:05;;;;;;;0.10;0.10;;;;;;;-0.64;82.14;99983.53;5036385;28;20193;-53
2024/01/08 07:53:52;;;;;;;0.10;0.10;;;;;;;-0.90;83.15;99986.25;5035059;28;20640;-53
2024/01/08 07:56:39;;;;;;;0.00;0.00;;;;;;;-0.98;84.89;99988.88;5036388;28;20315;-53
2024/01/08 07:59:43;;;;;;;0.10;0.10;;;;;;;-1.03;85.99;99989.78;5036420;28;20196;-53
2024/01/08 08:02:30;;;;;;;0.10;0.10;;;;;;;-0.98;86.66;99994.06;5036358;28;20205;-53
2024/01/08 08:05:17;;;;;;;0.10;0.10;;;;;;;-0.61;86.76;99999.09;5035456;28;20663;-53
2024/01/08 08:08:04;;;;;;;0.10;0.10;;;;;;;-0.81;85.78;99999.22;5035974;28;20212;-53
2024/01/08 08:10:51;;;;;;;0.10;0.10;;;;;;;-0.75;84.56;99995.72;5034850;28;20204;-53
2024/01/08 08:13:38;;;;;;;0.10;0.10;;;;;;;-0.65;85.24;100000.88;5036075;28;20201;-53
2024/01/08 08:16:27;;;;;;;0.10;0.10;;;;;;;-0.43;83.60;100003.34;5035979;28;20193;-53
2024/01/08 08:19:14;;;;;;;0.10;0.10;;;;;;;-0.44;84.03;100005.09;5036079;28;20197;-53
2024/01/08 08:22:01;;;;;;;0.10;0.10;;;;;;;-0.34;84.18;100004.16;5020906;28;20264;-52
2024/01/08 08:24:48;;;;;;;0.10;0.10;;;;;;;-0.10;81.43;100008.31;5034330;28;20305;-53
2024/01/08 08:27:35;;;;;;;0.10;0.10;;;;;;;-0.13;79.35;100013.56;5035560;28;20220;-53
2024/01/08 08:30:24;;;;;;;0.10;0.10;;;;;;;0.56;84.61;100008.63;5035749;28;20265;-53
2024/01/08 08:33:12;;;;;;;0.10;0.10;;;;;;;0.39;78.11;100013.16;5035659;28;20305;-52
2024/01/08 08:35:59;;;;;;;0.10;0.10;;;;;;;0.14;77.82;100022.06;5035661;28;20200;-53
2024/01/08 08:38:46;;;;;;;0.10;0.10;;;;;;;0.04;77.89;100013.44;5034462;28;20189;-53
2024/01/08 08:41:33;;;;;;;0.10;0.10;;;;;;;0.48;77.50;100027.81;5035443;28;20217;-54
2024/01/08 08:44:20;;;;;;;0.10;0.10;;;;;;;0.83;76.08;100024.88;5035593;28;20189;-53
2024/01/08 08:47:07;;;;;;;0.10;0.10;;;;;;;0.52;74.21;100034.75;5034970;28;20423;-53
2024/01/08 08:49:55;;;;;;;0.00;0.00;;;;;;;0.79;73.93;100038.84;5034861;28;20200;-53
2024/01/08 08:52:43;;;;;;;0.10;0.10;;;;;;;0.77;72.60;100044.06;5035434;28;20201;-54
2024/01/08 08:55:31;;;;;;;0.10;0.10;;;;;;;0.84;72.36;100045.72;5032625;28;20208;-54
2024/01/08 08:58:18;;;;;;;0.10;0.10;;;;;;;0.88;70.01;100043.09;5034899;28;20271;-53
2024/01/08 09:01:05;;;;;;;0.10;0.10;;;;;;;0.69;70.41;100048.50;5035302;28;20201;-54
2024/01/08 09:03:52;;;;;;;0.10;0.10;;;;;;;0.67;69.95;100044.16;5035071;28;20196;-54
2024/01/08 09:06:41;;;;;;;0.10;0.10;;;;;;;0.65;70.97;100041.56;5034740;28;20307;-54
2024/01/08 09:09:28;;;;;;;0.10;0.10;;;;;;;0.60;70.05;100043.38;5033869;28;20189;-53
2024/01/08 09:12:15;;;;;;;0.10;0.10;;;;;;;0.86;69.82;100037.88;5035116;28;20203;-54
2024/01/08 09:15:02;;;;;;;0.10;0.10;;;;;;;0.90;70.75;100046.56;5034803;28;20274;-54
2024/01/08 09:17:49;;;;;;;0.10;0.10;;;;;;;1.03;69.51;100041.16;5035006;28;20304;-54
2024/01/08 09:20:37;;;;;;;0.10;0.10;;;;;;;1.79;67.40;100047.19;5034867;28;20196;-51
2024/01/08 09:23:25;;;;;;;0.10;0.10;;;;;;;2.36;62.19;100046.31;5034729;28;20308;-51
2024/01/08 09:26:12;;;;;;;0.10;0.10;;;;;;;3.22;58.47;100049.13;5034772;28;20320;-52
2024/01/08 09:28:59;;;;;;;0.10;0.10;;;;;;;4.02;54.23;100058.75;5034502;28;20189;-52
2024/01/08 09:31:46;;;;;;;0.10;0.10;;;;;;;5.18;50.32;100042.69;5034388;28;20205;-51
2024/01/08 09:34:33;;;;;;;0.10;0.10;;;;;;;7.04;49.59;100033.31;5034569;28;20678;-52
2024/01/08 09:37:20;;;;;;;0.10;0.10;;;;;;;7.90;44.36;100039.75;5034650;28;20200;-52
2024/01/08 09:40:11;;;;;;;0.00;0.00;;;;;;;8.20;44.63;100023.63;5033064;28;20300;-52
2024/01/08 09:42:59;;;;;;;0.10;0.10;;;;;;;8.47;40.80;100032.22;5034462;28;20240;-52
2024/01/08 09:46:02;;;;;;;0.10;0.10;;;;;;;8.94;39.21;100022.31;5034345;28;20215;-52
2024/01/08 09:48:49;;;;;;;0.10;0.10;;;;;;;9.40;37.59;100022.91;5034142;28;20215;-52
2024/01/08 09:51:36;;;;;;;0.03;0.03;;;;;;;7.68;37.82;100034.44;5034308;28;20232;-52
2024/01/08 09:54:26;;;;;;;0.10;0.10;;;;;;;8.19;36.52;100028.03;5017955;28;20200;-52
2024/01/08 09:57:14;;;;;;;0.10;0.10;;;;;;;6.59;38.56;100026.97;5034108;28;20231;-52
2024/01/08 10:00:01;;;;;;;0.00;0.00;;;;;;;6.13;39.14;100032.00;5033323;28;20249;-52
2024/01/08 10:02:58;;;;;;;0.00;0.00;;;;;;;6.65;38.61;100025.88;5033688;28;20312;-52
2024/01/08 10:05:45;;;;;;;0.00;0.00;;;;;;;7.73;37.66;100019.31;5034003;28;20204;-52
2024/01/08 10:08:32;;;;;;;0.10;0.10;;;;;;;7.47;36.97;100016.81;5033823;28;20217;-52
2024/01/08 10:11:19;;;;;;;0.10;0.10;;;;;;;7.20;37.11;100009.91;5033813;28;20197;-52
2024/01/08 10:14:08;;;;;;;0.10;0.10;;;;;;;8.37;36.19;99994.78;5033884;28;20205;-51
2024/01/08 10:16:55;;;;;;;0.10;0.10;;;;;;;8.17;34.96;100003.50;5033955;28;20750;-52
2024/01/08 10:19:48;;;;;;;0.10;0.10;;;;;;;8.42;34.95;100000.75;5033721;28;20208;-52
2024/01/08 10:22:45;;;;;;;0.10;0.10;;;;;;;8.67;34.60;99999.72;5131073;27;20537;-53
2024/01/08 10:25:32;;;;;;;0.10;0.10;;;;;;;9.43;33.98;99986.59;5129881;28;20746;-54
2024/01/08 10:28:19;;;;;;;0.10;0.10;;;;;;;9.16;32.90;99991.34;5131195;28;20185;-53
2024/01/08 10:31:09;;;;;;;0.00;0.00;;;;;;;7.56;33.86;99994.50;5131190;28;20193;-54
2024/01/08 10:34:04;;;;;;;0.00;0.00;;;;;;;7.80;34.13;100006.72;5131204;28;20356;-53
2024/01/08 10:36:52;;;;;;;0.10;0.10;;;;;;;8.85;32.75;99991.00;5131152;28;20198;-53
2024/01/08 10:39:42;;;;;;;0.10;0.10;;;;;;;9.84;32.76;99990.88;5129825;28;20244;-53
2024/01/08 10:42:38;;;;;;;0.10;0.10;;;;;;;10.14;30.92;99992.06;5130558;28;20797;-54
2024/01/08 10:45:25;;;;;;;0.10;0.10;;;;;;;9.75;31.07;99995.69;5130837;28;20217;-53
2024/01/08 10:48:18;;;;;;;0.10;0.10;;;;;;;10.90;30.71;99992.66;5127321;28;20194;-54
2024/01/08 10:51:07;;;;;;;0.10;0.10;;;;;;;9.41;30.97;99999.03;5109962;28;20261;-54
2024/01/08 10:53:55;;;;;;;0.10;0.10;;;;;;;10.48;30.88;99985.97;5109330;28;20207;-54
2024/01/08 10:56:45;;;;;;;0.00;0.00;;;;;;;10.19;31.52;99991.84;5130780;28;20190;-53
2024/01/08 10:59:33;;;;;;;0.00;0.00;;;;;;;10.68;30.54;99992.91;5130223;28;20232;-53
2024/01/08 11:02:20;;;;;;;0.10;0.10;;;;;;;11.37;30.01;99987.50;5130401;28;20225;-54
2024/01/08 11:05:08;;;;;;;0.10;0.10;;;;;;;11.46;29.76;99980.84;5129164;28;20206;-54
2024/01/08 11:07:57;;;;;;;0.10;0.10;;;;;;;10.47;31.00;99978.13;5130451;28;20264;-54
2024/01/08 11:10:44;;;;;;;0.10;0.10;;;;;;;10.74;29.52;99978.50;5129142;28;20186;-54
2024/01/08 11:13:32;;;;;;;0.10;0.10;;;;;;;10.70;29.34;99988.38;5130535;28;20189;-54
2024/01/08 11:16:25;;;;;;;0.10;0.10;;;;;;;9.15;31.31;99996.72;5130197;28;20240;-54
2024/01/08 11:19:26;;;;;;;0.10;0.10;;;;;;;9.61;31.19;100006.06;5130372;28;20198;-54
2024/01/08 11:22:15;;;;;;;0.10;0.10;;;;;;;11.24;29.92;100001.50;5129608;28;20237;-54
2024/01/08 11:25:03;;;;;;;0.10;0.10;;;;;;;11.20;29.33;99999.97;5127758;28;20706;-54
2024/01/08 11:27:50;;;;;;;0.10;0.10;;;;;;;10.74;29.21;99997.06;5129083;28;20194;-54
2024/01/08 11:30:38;;;;;;;0.10;0.10;;;;;;;12.10;28.37;99995.88;5129880;28;20323;-54
2024/01/08 11:33:38;;;;;;;0.07;0.07;;;;;;;11.52;28.71;99993.78;5120119;28;20198;-54
2024/01/08 11:36:41;;;;;;;0.10;0.10;;;;;;;10.56;28.98;99994.41;5095885;28;20257;-54
2024/01/08 11:39:28;;;;;;;0.10;0.10;;;;;;;11.01;29.38;100000.09;5094578;28;20210;-54
2024/01/08 11:42:15;;;;;;;0.10;0.10;;;;;;;10.75;29.72;99991.69;5095520;28;20327;-54
2024/01/08 11:45:03;;;;;;;0.10;0.10;;;;;;;11.36;28.87;99999.06;5104665;28;20197;-54
2024/01/08 11:47:51;;;;;;;0.10;0.10;;;;;;;10.31;29.23;99996.56;5115972;28;20232;-54
2024/01/08 11:50:41;;;;;;;0.10;0.10;;;;;;;11.79;29.15;99999.38;5116022;28;20194;-54
2024/01/08 11:53:28;;;;;;;0.00;0.00;;;;;;;11.92;27.88;100002.22;5115818;28;20193;-54
2024/01/08 11:56:17;;;;;;;0.07;0.07;;;;;;;12.61;28.51;99999.97;5116043;28;20220;-53
2024/01/08 11:59:04;;;;;;;0.07;0.07;;;;;;;10.58;29.19;100000.47;5115899;28;20680;-54
2024/01/08 12:01:52;;;;;;;0.00;0.00;;;;;;;10.60;29.17;100005.69;5115422;28;20240;-54
2024/01/08 12:04:40;;;;;;;0.03;0.03;;;;;;;11.44;28.50;100003.94;5115782;28;20215;-55
2024/01/08 12:07:28;;;;;;;0.10;0.10;;;;;;;13.01;27.62;100000.25;5115814;28;20217;-54
2024/01/08 12:10:15;;;;;;;0.10;0.10;;;;;;;12.66;27.79;100009.50;5114186;28;20206;-55
2024/01/08 12:13:03;;;;;;;0.00;0.00;;;;;;;13.05;27.04;99999.13;5115724;28;20232;-55
2024/01/08 12:15:50;;;;;;;0.10;0.10;;;;;;;12.96;27.60;99998.84;5115419;28;20206;-52
2024/01/08 12:18:37;;;;;;;0.10;0.10;;;;;;;11.59;29.12;99997.81;5115325;28;20202;-52
2024/01/08 12:21:26;;;;;;;0.00;0.00;;;;;;;11.29;29.61;100003.00;5115165;28;20610;-52
2024/01/08 12:24:28;;;;;;;0.00;0.00;;;;;;;11.61;29.50;100008.34;5114008;28;20319;-52
2024/01/08 12:27:17;;;;;;;0.00;0.00;;;;;;;11.30;29.47;100017.97;5115368;28;20194;-52
2024/01/08 12:30:04;;;;;;;0.10;0.10;;;;;;;12.60;27.64;100013.38;5115288;28;20201;-53
2024/01/08 12:32:51;;;;;;;0.10;0.10;;;;;;;12.58;27.91;100015.25;5115100;28;20189;-52
2024/01/08 12:35:38;;;;;;;0.10;0.10;;;;;;;14.12;26.88;100003.06;5115058;28;20194;-51
2024/01/08 12:38:27;;;;;;;0.10;0.10;;;;;;;12.25;28.03;100016.25;5115120;28;20688;-52
2024/01/08 12:41:14;;;;;;;0.10;0.10;;;;;;;13.51;27.05;100011.44;5115034;28;20209;-52
2024/01/08 12:44:03;;;;;;;0.00;0.00;;;;;;;12.23;28.10;100019.94;5114353;28;20191;-52
2024/01/08 12:46:50;;;;;;;0.00;0.00;;;;;;;12.63;28.85;100014.97;5094536;28;20454;-52
2024/01/08 12:49:40;;;;;;;0.00;0.00;;;;;;;13.08;28.07;100020.22;5109401;28;20285;-52
2024/01/08 12:52:27;;;;;;;0.10;0.10;;;;;;;12.11;29.55;100028.63;5094361;28;20676;-53
2024/01/08 12:55:15;;;;;;;0.00;0.00;;;;;;;13.67;27.59;100025.50;5102624;28;20309;-54
2024/01/08 12:58:04;;;;;;;0.00;0.00;;;;;;;11.69;29.48;100025.56;5114985;28;20242;-55
2024/01/08 13:00:51;;;;;;;0.00;0.00;;;;;;;11.96;28.98;100030.31;5114183;28;20256;-55
2024/01/08 13:03:38;;;;;;;0.10;0.10;;;;;;;12.68;28.76;100035.03;5114265;28;20225;-55
2024/01/08 13:06:25;;;;;;;0.00;0.00;;;;;;;12.58;27.88;100029.41;5114530;28;20205;-55
2024/01/08 13:09:13;;;;;;;0.00;0.00;;;;;;;11.96;28.42;100047.09;5113234;28;20206;-55